createdAt,value
2023-05-06T00:00:07.208Z,16.32
2023-05-06T00:00:28.265Z,16.32
2023-05-06T00:00:49.309Z,16.31
2023-05-06T00:01:10.371Z,16.31
2023-05-06T00:01:31.469Z,16.30
2023-05-06T00:01:52.498Z,16.30
2023-05-06T00:02:13.556Z,16.30
2023-05-06T00:02:34.705Z,16.29
2023-05-06T00:02:55.842Z,16.29
2023-05-06T00:03:16.974Z,16.29
2023-05-06T00:03:38.223Z,16.28
2023-05-06T00:03:59.413Z,16.28
2023-05-06T00:04:20.723Z,16.28
2023-05-06T00:04:42.079Z,16.27
2023-05-06T00:05:03.186Z,16.26
2023-05-06T00:05:24.234Z,16.26
2023-05-06T00:05:45.310Z,16.26
2023-05-06T00:06:06.373Z,16.25
2023-05-06T00:06:27.480Z,16.26
2023-05-06T00:06:48.522Z,16.24
2023-05-06T00:07:09.596Z,16.24
2023-05-06T00:07:30.654Z,16.24
2023-05-06T00:07:51.708Z,16.23
2023-05-06T00:08:12.758Z,16.23
2023-05-06T00:08:33.815Z,16.23
2023-05-06T00:08:54.864Z,16.23
2023-05-06T00:09:15.938Z,16.23
2023-05-06T00:09:37.222Z,16.21
2023-05-06T00:09:58.316Z,16.22
2023-05-06T00:10:19.376Z,16.21
2023-05-06T00:10:40.429Z,16.20
2023-05-06T00:11:01.501Z,16.20
2023-05-06T00:11:22.558Z,16.20
2023-05-06T00:11:43.607Z,16.19
2023-05-06T00:12:04.662Z,16.19
2023-05-06T00:12:25.733Z,16.18
2023-05-06T00:12:46.841Z,16.18
2023-05-06T00:13:07.870Z,16.17
2023-05-06T00:13:28.939Z,16.17
2023-05-06T00:13:49.975Z,16.15
2023-05-06T00:14:11.054Z,16.16
2023-05-06T00:14:32.176Z,16.14
2023-05-06T00:14:53.264Z,16.14
2023-05-06T00:15:14.361Z,16.13
2023-05-06T00:15:35.416Z,16.13
2023-05-06T00:15:56.512Z,16.13
2023-05-06T00:16:17.583Z,16.12
2023-05-06T00:16:38.674Z,16.11
2023-05-06T00:16:59.779Z,16.11
2023-05-06T00:17:20.858Z,16.10
2023-05-06T00:17:41.960Z,16.09
2023-05-06T00:18:03.030Z,16.08
2023-05-06T00:18:24.098Z,16.08
2023-05-06T00:18:45.149Z,16.08
2023-05-06T00:19:06.207Z,16.06
2023-05-06T00:19:27.258Z,16.06
2023-05-06T00:19:48.326Z,16.06
2023-05-06T00:20:09.420Z,16.05
2023-05-06T00:20:30.538Z,16.04
2023-05-06T00:20:51.596Z,16.04
2023-05-06T00:21:12.640Z,16.04
2023-05-06T00:21:33.711Z,16.03
2023-05-06T00:21:54.764Z,16.02
2023-05-06T00:22:15.843Z,16.02
2023-05-06T00:22:37.660Z,16.01
2023-05-06T00:22:58.700Z,16.01
2023-05-06T00:23:19.769Z,16.00
2023-05-06T00:23:40.819Z,16.00
2023-05-06T00:24:01.888Z,16.00
2023-05-06T00:24:22.946Z,15.99
2023-05-06T00:24:44.067Z,15.99
2023-05-06T00:25:05.128Z,15.98
2023-05-06T00:25:26.236Z,15.97
2023-05-06T00:25:47.346Z,15.97
2023-05-06T00:26:08.405Z,15.97
2023-05-06T00:26:29.460Z,15.96
2023-05-06T00:26:50.539Z,15.96
2023-05-06T00:27:12.154Z,15.95
2023-05-06T00:27:33.209Z,15.95
2023-05-06T00:27:54.272Z,15.94
2023-05-06T00:28:15.321Z,15.94
2023-05-06T00:28:36.392Z,15.93
2023-05-06T00:28:57.460Z,15.92
2023-05-06T00:29:18.523Z,15.92
2023-05-06T00:29:39.692Z,15.91
2023-05-06T00:30:00.730Z,15.90
2023-05-06T00:30:21.782Z,15.90
2023-05-06T00:30:42.884Z,15.89
2023-05-06T00:31:04.160Z,15.89
2023-05-06T00:31:25.290Z,15.88
2023-05-06T00:31:46.374Z,15.87
2023-05-06T00:32:07.658Z,15.87
2023-05-06T00:32:28.861Z,15.86
2023-05-06T00:32:49.959Z,15.85
2023-05-06T00:33:11.130Z,15.84
2023-05-06T00:33:32.165Z,15.84
2023-05-06T00:33:53.232Z,15.83
2023-05-06T00:34:14.285Z,15.83
2023-05-06T00:34:35.349Z,15.82
2023-05-06T00:34:56.422Z,15.81
2023-05-06T00:35:17.482Z,15.80
2023-05-06T00:35:38.553Z,15.79
2023-05-06T00:35:59.838Z,15.79
2023-05-06T00:36:20.930Z,15.79
2023-05-06T00:36:41.982Z,15.78
2023-05-06T00:37:03.040Z,15.77
2023-05-06T00:37:24.133Z,15.77
2023-05-06T00:37:45.182Z,15.76
2023-05-06T00:38:06.222Z,15.75
2023-05-06T00:38:27.278Z,15.76
2023-05-06T00:38:48.338Z,15.75
2023-05-06T00:39:09.394Z,15.75
2023-05-06T00:39:30.458Z,15.74
2023-05-06T00:39:51.510Z,15.74
2023-05-06T00:40:12.568Z,15.74
2023-05-06T00:40:33.649Z,15.73
2023-05-06T00:40:54.692Z,15.73
2023-05-06T00:41:15.973Z,15.72
2023-05-06T00:41:37.100Z,15.72
2023-05-06T00:41:58.195Z,15.72
2023-05-06T00:42:19.270Z,15.71
2023-05-06T00:42:40.328Z,15.70
2023-05-06T00:43:01.402Z,15.70
2023-05-06T00:43:22.508Z,15.70
2023-05-06T00:43:43.578Z,15.69
2023-05-06T00:44:04.645Z,15.69
2023-05-06T00:44:25.703Z,15.68
2023-05-06T00:44:46.844Z,15.69
2023-05-06T00:45:08.138Z,15.68
2023-05-06T00:45:29.421Z,15.68
2023-05-06T00:45:50.525Z,15.67
2023-05-06T00:46:11.760Z,15.67
2023-05-06T00:46:33.078Z,15.67
2023-05-06T00:46:54.154Z,15.67
2023-05-06T00:47:15.231Z,15.66
2023-05-06T00:47:36.317Z,15.65
2023-05-06T00:47:57.456Z,15.65
2023-05-06T00:48:18.607Z,15.65
2023-05-06T00:48:39.642Z,15.64
2023-05-06T00:49:00.691Z,15.64
2023-05-06T00:49:21.745Z,15.63
2023-05-06T00:49:42.799Z,15.62
2023-05-06T00:50:03.865Z,15.62
2023-05-06T00:50:24.922Z,15.61
2023-05-06T00:50:46.004Z,15.60
2023-05-06T00:51:07.026Z,15.60
2023-05-06T00:51:28.090Z,15.59
2023-05-06T00:51:49.370Z,15.59
2023-05-06T00:52:10.457Z,15.59
2023-05-06T00:52:31.530Z,15.58
2023-05-06T00:52:52.597Z,15.58
2023-05-06T00:53:13.649Z,15.57
2023-05-06T00:53:34.722Z,15.56
2023-05-06T00:53:55.769Z,15.56
2023-05-06T00:54:16.850Z,15.56
2023-05-06T00:54:37.907Z,15.55
2023-05-06T00:54:58.974Z,15.55
2023-05-06T00:55:20.026Z,15.54
2023-05-06T00:55:41.086Z,15.54
2023-05-06T00:56:02.141Z,15.54
2023-05-06T00:56:23.205Z,15.54
2023-05-06T00:56:44.263Z,15.53
2023-05-06T00:57:05.538Z,15.52
2023-05-06T00:57:26.643Z,15.52
2023-05-06T00:57:47.688Z,15.51
2023-05-06T00:58:08.749Z,15.51
2023-05-06T00:58:29.807Z,15.50
2023-05-06T00:58:50.875Z,15.49
2023-05-06T00:59:11.934Z,15.49
2023-05-06T00:59:33.001Z,15.48
2023-05-06T00:59:54.149Z,15.47
2023-05-06T01:00:15.157Z,15.47
2023-05-06T01:00:36.220Z,15.47
2023-05-06T01:00:57.304Z,15.46
2023-05-06T01:01:18.392Z,15.45
2023-05-06T01:01:39.511Z,15.45
2023-05-06T01:02:00.688Z,15.44
2023-05-06T01:02:23.426Z,15.43
2023-05-06T01:02:47.782Z,15.44
2023-05-06T01:03:09.047Z,15.43
2023-05-06T01:03:30.237Z,15.41
2023-05-06T01:03:51.419Z,15.41
2023-05-06T01:04:12.617Z,15.41
2023-05-06T01:04:33.746Z,15.40
2023-05-06T01:04:54.790Z,15.39
2023-05-06T01:05:15.906Z,15.38
2023-05-06T01:05:36.932Z,15.38
2023-05-06T01:05:57.989Z,15.37
2023-05-06T01:06:19.036Z,15.36
2023-05-06T01:06:40.112Z,15.36
2023-05-06T01:07:01.189Z,15.35
2023-05-06T01:07:22.277Z,15.34
2023-05-06T01:07:43.380Z,15.33
2023-05-06T01:08:04.428Z,15.33
2023-05-06T01:08:25.501Z,15.32
2023-05-06T01:08:46.568Z,15.31
2023-05-06T01:09:07.636Z,15.30
2023-05-06T01:09:28.704Z,15.29
2023-05-06T01:09:49.777Z,15.29
2023-05-06T01:10:10.829Z,15.28
2023-05-06T01:10:31.898Z,15.27
2023-05-06T01:10:52.946Z,15.26
2023-05-06T01:11:15.710Z,15.25
2023-05-06T01:11:36.953Z,15.25
2023-05-06T01:11:58.010Z,15.23
2023-05-06T01:12:19.094Z,15.23
2023-05-06T01:12:40.177Z,15.22
2023-05-06T01:13:01.284Z,15.21
2023-05-06T01:13:22.371Z,15.20
2023-05-06T01:13:43.425Z,15.19
2023-05-06T01:14:04.483Z,15.19
2023-05-06T01:14:25.549Z,15.18
2023-05-06T01:14:46.619Z,15.18
2023-05-06T01:15:07.969Z,15.17
2023-05-06T01:15:29.424Z,15.16
2023-05-06T01:15:50.484Z,15.15
2023-05-06T01:16:11.550Z,15.13
2023-05-06T01:16:32.625Z,15.14
2023-05-06T01:16:53.737Z,15.13
2023-05-06T01:17:14.844Z,15.12
2023-05-06T01:17:36.006Z,15.11
2023-05-06T01:17:57.101Z,15.11
2023-05-06T01:18:18.195Z,15.10
2023-05-06T01:18:39.257Z,15.09
2023-05-06T01:19:00.356Z,15.08
2023-05-06T01:19:21.384Z,15.08
2023-05-06T01:19:42.446Z,15.07
2023-05-06T01:20:03.509Z,15.07
2023-05-06T01:20:24.565Z,15.07
2023-05-06T01:20:45.625Z,15.06
2023-05-06T01:21:06.672Z,15.05
2023-05-06T01:21:27.740Z,15.04
2023-05-06T01:21:48.790Z,15.04
2023-05-06T01:22:09.863Z,15.03
2023-05-06T01:22:30.925Z,15.02
2023-05-06T01:22:51.984Z,15.01
2023-05-06T01:23:13.275Z,15.01
2023-05-06T01:23:34.362Z,15.01
2023-05-06T01:23:55.456Z,15.00
2023-05-06T01:24:16.556Z,15.00
2023-05-06T01:24:37.616Z,14.98
2023-05-06T01:24:58.664Z,14.98
2023-05-06T01:25:19.737Z,14.97
2023-05-06T01:25:40.803Z,14.96
2023-05-06T01:26:01.854Z,14.96
2023-05-06T01:26:22.916Z,14.95
2023-05-06T01:26:43.985Z,14.95
2023-05-06T01:27:05.141Z,14.93
2023-05-06T01:27:26.175Z,14.92
2023-05-06T01:27:47.239Z,14.92
2023-05-06T01:28:08.287Z,14.91
2023-05-06T01:28:29.558Z,14.92
2023-05-06T01:28:50.664Z,14.91
2023-05-06T01:29:11.716Z,14.90
2023-05-06T01:29:32.783Z,14.89
2023-05-06T01:29:53.830Z,14.88
2023-05-06T01:30:14.907Z,14.88
2023-05-06T01:30:35.948Z,14.88
2023-05-06T01:30:57.094Z,14.87
2023-05-06T01:31:18.205Z,14.85
2023-05-06T01:31:39.290Z,14.87
2023-05-06T01:32:00.333Z,14.86
2023-05-06T01:32:21.424Z,14.85
2023-05-06T01:32:42.496Z,14.84
2023-05-06T01:33:03.603Z,14.83
2023-05-06T01:33:24.629Z,14.83
2023-05-06T01:33:45.764Z,14.82
2023-05-06T01:34:06.865Z,14.81
2023-05-06T01:34:27.928Z,14.81
2023-05-06T01:34:48.992Z,14.80
2023-05-06T01:35:10.286Z,14.80
2023-05-06T01:35:31.464Z,14.79
2023-05-06T01:35:52.529Z,14.78
2023-05-06T01:36:13.583Z,14.78
2023-05-06T01:36:34.639Z,14.77
2023-05-06T01:36:55.699Z,14.77
2023-05-06T01:37:16.749Z,14.76
2023-05-06T01:37:37.822Z,14.75
2023-05-06T01:37:58.871Z,14.75
2023-05-06T01:38:19.978Z,14.75
2023-05-06T01:38:41.059Z,14.74
2023-05-06T01:39:02.319Z,14.74
2023-05-06T01:39:23.423Z,14.73
2023-05-06T01:39:44.482Z,14.72
2023-05-06T01:40:05.562Z,14.72
2023-05-06T01:40:26.596Z,14.71
2023-05-06T01:40:47.642Z,14.70
2023-05-06T01:41:08.720Z,14.70
2023-05-06T01:41:29.776Z,14.70
2023-05-06T01:41:50.827Z,14.69
2023-05-06T01:42:11.929Z,14.69
2023-05-06T01:42:32.945Z,14.68
2023-05-06T01:42:54.005Z,14.68
2023-05-06T01:43:15.072Z,14.67
2023-05-06T01:43:36.135Z,14.67
2023-05-06T01:43:57.195Z,14.66
2023-05-06T01:44:18.466Z,14.66
2023-05-06T01:44:39.556Z,14.66
2023-05-06T01:45:00.600Z,14.65
2023-05-06T01:45:21.677Z,14.65
2023-05-06T01:45:42.708Z,14.64
2023-05-06T01:46:03.867Z,14.63
2023-05-06T01:46:24.980Z,14.63
2023-05-06T01:46:46.190Z,14.63
2023-05-06T01:47:07.286Z,14.62
2023-05-06T01:47:28.368Z,14.61
2023-05-06T01:47:49.482Z,14.60
2023-05-06T01:48:10.572Z,14.61
2023-05-06T01:48:31.615Z,14.60
2023-05-06T01:48:52.703Z,14.60
2023-05-06T01:49:13.742Z,14.59
2023-05-06T01:49:34.859Z,14.59
2023-05-06T01:49:56.022Z,14.59
2023-05-06T01:50:17.083Z,14.58
2023-05-06T01:50:38.134Z,14.57
2023-05-06T01:50:59.184Z,14.57
2023-05-06T01:51:20.267Z,14.57
2023-05-06T01:51:41.327Z,14.57
2023-05-06T01:52:02.366Z,14.56
2023-05-06T01:52:23.432Z,14.56
2023-05-06T01:52:44.494Z,14.56
2023-05-06T01:53:05.561Z,14.55
2023-05-06T01:53:26.655Z,14.55
2023-05-06T01:53:47.700Z,14.54
2023-05-06T01:54:08.747Z,14.53
2023-05-06T01:54:29.797Z,14.53
2023-05-06T01:54:51.098Z,14.53
2023-05-06T01:55:12.246Z,14.52
2023-05-06T01:55:33.261Z,14.52
2023-05-06T01:55:54.328Z,14.52
2023-05-06T01:56:15.387Z,14.51
2023-05-06T01:56:36.439Z,14.50
2023-05-06T01:56:57.525Z,14.50
2023-05-06T01:57:18.588Z,14.49
2023-05-06T01:57:39.632Z,14.48
2023-05-06T01:58:00.699Z,14.48
2023-05-06T01:58:21.745Z,14.47
2023-05-06T01:58:42.826Z,14.47
2023-05-06T01:59:03.870Z,14.46
2023-05-06T01:59:24.934Z,14.46
2023-05-06T01:59:45.995Z,14.45
2023-05-06T02:00:07.097Z,14.45
2023-05-06T02:00:28.279Z,14.44
2023-05-06T02:00:49.296Z,14.44
2023-05-06T02:01:10.451Z,14.43
2023-05-06T02:01:31.576Z,14.42
2023-05-06T02:01:52.688Z,14.41
2023-05-06T02:02:13.766Z,14.41
2023-05-06T02:02:34.879Z,14.40
2023-05-06T02:02:56.135Z,14.40
2023-05-06T02:03:17.337Z,14.39
2023-05-06T02:03:38.465Z,14.38
2023-05-06T02:03:59.786Z,14.38
2023-05-06T02:04:20.908Z,14.37
2023-05-06T02:04:41.949Z,14.37
2023-05-06T02:05:03.071Z,14.36
2023-05-06T02:05:24.172Z,14.35
2023-05-06T02:05:45.258Z,14.34
2023-05-06T02:06:06.321Z,14.32
2023-05-06T02:06:27.385Z,14.33
2023-05-06T02:06:48.437Z,14.31
2023-05-06T02:07:09.521Z,14.30
2023-05-06T02:07:30.569Z,14.30
2023-05-06T02:07:51.628Z,14.29
2023-05-06T02:08:12.668Z,14.29
2023-05-06T02:08:33.719Z,14.28
2023-05-06T02:08:54.794Z,14.28
2023-05-06T02:09:15.856Z,14.27
2023-05-06T02:09:36.904Z,14.26
2023-05-06T02:09:57.956Z,14.25
2023-05-06T02:10:19.041Z,14.25
2023-05-06T02:10:40.117Z,14.24
2023-05-06T02:11:01.184Z,14.23
2023-05-06T02:11:22.266Z,14.22
2023-05-06T02:11:43.309Z,14.22
2023-05-06T02:12:04.374Z,14.21
2023-05-06T02:12:25.434Z,14.20
2023-05-06T02:12:46.518Z,14.20
2023-05-06T02:13:07.623Z,14.19
2023-05-06T02:13:28.701Z,14.18
2023-05-06T02:13:49.768Z,14.18
2023-05-06T02:14:10.831Z,14.17
2023-05-06T02:14:31.895Z,14.17
2023-05-06T02:14:53.571Z,14.16
2023-05-06T02:15:14.646Z,14.16
2023-05-06T02:15:35.740Z,14.15
2023-05-06T02:15:56.873Z,14.15
2023-05-06T02:16:18.152Z,14.15
2023-05-06T02:16:39.255Z,14.14
2023-05-06T02:17:00.319Z,14.14
2023-05-06T02:17:21.375Z,14.13
2023-05-06T02:17:42.478Z,14.13
2023-05-06T02:18:03.540Z,14.13
2023-05-06T02:18:24.605Z,14.13
2023-05-06T02:18:45.661Z,14.11
2023-05-06T02:19:06.700Z,14.11
2023-05-06T02:19:27.763Z,14.10
2023-05-06T02:19:48.826Z,14.10
2023-05-06T02:20:09.892Z,14.09
2023-05-06T02:20:30.926Z,14.09
2023-05-06T02:20:51.981Z,14.09
2023-05-06T02:21:13.080Z,14.07
2023-05-06T02:21:34.164Z,14.07
2023-05-06T02:21:55.206Z,14.07
2023-05-06T02:22:16.273Z,14.06
2023-05-06T02:22:37.331Z,14.05
2023-05-06T02:22:58.380Z,14.04
2023-05-06T02:23:19.437Z,14.04
2023-05-06T02:23:40.513Z,14.04
2023-05-06T02:24:01.572Z,14.02
2023-05-06T02:24:22.621Z,14.02
2023-05-06T02:24:43.674Z,14.01
2023-05-06T02:25:04.737Z,14.00
2023-05-06T02:25:25.808Z,13.99
2023-05-06T02:25:46.876Z,13.99
2023-05-06T02:26:07.941Z,13.98
2023-05-06T02:26:29.198Z,13.98
2023-05-06T02:26:50.309Z,13.97
2023-05-06T02:27:11.369Z,13.97
2023-05-06T02:27:32.430Z,13.96
2023-05-06T02:27:53.495Z,13.96
2023-05-06T02:28:14.557Z,13.95
2023-05-06T02:28:35.624Z,13.95
2023-05-06T02:28:56.683Z,13.95
2023-05-06T02:29:17.742Z,13.94
2023-05-06T02:29:38.800Z,13.94
2023-05-06T02:29:59.853Z,13.94
2023-05-06T02:30:20.942Z,13.93
2023-05-06T02:30:42.063Z,13.93
2023-05-06T02:31:03.097Z,13.92
2023-05-06T02:31:24.221Z,13.92
2023-05-06T02:31:45.467Z,13.91
2023-05-06T02:32:06.725Z,13.91
2023-05-06T02:32:27.815Z,13.90
2023-05-06T02:32:48.893Z,13.90
2023-05-06T02:33:09.947Z,13.90
2023-05-06T02:33:30.995Z,13.89
2023-05-06T02:33:52.071Z,13.88
2023-05-06T02:34:13.172Z,13.88
2023-05-06T02:34:34.197Z,13.88
2023-05-06T02:34:55.282Z,13.87
2023-05-06T02:35:16.378Z,13.86
2023-05-06T02:35:37.497Z,13.86
2023-05-06T02:35:58.529Z,13.86
2023-05-06T02:36:19.596Z,13.85
2023-05-06T02:36:40.694Z,13.85
2023-05-06T02:37:01.825Z,13.83
2023-05-06T02:37:23.180Z,13.82
2023-05-06T02:37:44.250Z,13.82
2023-05-06T02:38:05.312Z,13.82
2023-05-06T02:38:26.394Z,13.81
2023-05-06T02:38:47.445Z,13.80
2023-05-06T02:39:08.494Z,13.80
2023-05-06T02:39:29.563Z,13.80
2023-05-06T02:39:50.619Z,13.79
2023-05-06T02:40:11.690Z,13.78
2023-05-06T02:40:32.808Z,13.78
2023-05-06T02:40:53.839Z,13.77
2023-05-06T02:41:14.902Z,13.76
2023-05-06T02:41:35.988Z,13.76
2023-05-06T02:41:57.042Z,13.76
2023-05-06T02:42:18.332Z,13.74
2023-05-06T02:42:39.442Z,13.74
2023-05-06T02:43:00.538Z,13.74
2023-05-06T02:43:21.565Z,13.73
2023-05-06T02:43:42.659Z,13.73
2023-05-06T02:44:03.690Z,13.72
2023-05-06T02:44:24.747Z,13.72
2023-05-06T02:44:45.818Z,13.71
2023-05-06T02:45:06.948Z,13.71
2023-05-06T02:45:28.201Z,13.71
2023-05-06T02:45:49.369Z,13.70
2023-05-06T02:46:10.434Z,13.69
2023-05-06T02:46:31.484Z,13.70
2023-05-06T02:46:52.539Z,13.68
2023-05-06T02:47:13.609Z,13.69
2023-05-06T02:47:34.740Z,13.68
2023-05-06T02:47:55.849Z,13.68
2023-05-06T02:48:16.920Z,13.66
2023-05-06T02:48:37.959Z,13.66
2023-05-06T02:48:59.016Z,13.66
2023-05-06T02:49:20.070Z,13.66
2023-05-06T02:49:41.146Z,13.65
2023-05-06T02:50:02.219Z,13.65
2023-05-06T02:50:23.272Z,13.65
2023-05-06T02:50:44.331Z,13.64
2023-05-06T02:51:05.399Z,13.64
2023-05-06T02:51:26.474Z,13.64
2023-05-06T02:51:47.525Z,13.63
2023-05-06T02:52:08.587Z,13.62
2023-05-06T02:52:29.649Z,13.62
2023-05-06T02:52:50.860Z,13.62
2023-05-06T02:53:11.970Z,13.61
2023-05-06T02:53:33.038Z,13.62
2023-05-06T02:53:54.096Z,13.60
2023-05-06T02:54:15.185Z,13.60
2023-05-06T02:54:36.242Z,13.59
2023-05-06T02:54:57.300Z,13.60
2023-05-06T02:55:18.354Z,13.59
2023-05-06T02:55:39.413Z,13.58
2023-05-06T02:56:00.473Z,13.58
2023-05-06T02:56:21.522Z,13.57
2023-05-06T02:56:42.599Z,13.57
2023-05-06T02:57:03.650Z,13.57
2023-05-06T02:57:24.706Z,13.55
2023-05-06T02:57:45.769Z,13.55
2023-05-06T02:58:07.034Z,13.55
2023-05-06T02:58:28.108Z,13.55
2023-05-06T02:58:49.159Z,13.54
2023-05-06T02:59:10.243Z,13.53
2023-05-06T02:59:31.281Z,13.53
2023-05-06T02:59:52.344Z,13.53
2023-05-06T03:00:13.409Z,13.53
2023-05-06T03:00:34.458Z,13.52
2023-05-06T03:00:55.583Z,13.51
2023-05-06T03:01:16.660Z,13.51
2023-05-06T03:01:37.861Z,13.51
2023-05-06T03:01:58.923Z,13.50
2023-05-06T03:02:20.001Z,13.49
2023-05-06T03:02:41.081Z,13.49
2023-05-06T03:03:02.166Z,13.48
2023-05-06T03:03:23.230Z,13.48
2023-05-06T03:03:44.386Z,13.48
2023-05-06T03:04:05.464Z,13.48
2023-05-06T03:04:26.552Z,13.47
2023-05-06T03:04:47.579Z,13.47
2023-05-06T03:05:08.907Z,13.46
2023-05-06T03:05:30.141Z,13.46
2023-05-06T03:05:51.199Z,13.45
2023-05-06T03:06:12.250Z,13.45
2023-05-06T03:06:33.296Z,13.44
2023-05-06T03:06:54.379Z,13.43
2023-05-06T03:07:15.419Z,13.43
2023-05-06T03:07:36.493Z,13.43
2023-05-06T03:07:57.539Z,13.42
2023-05-06T03:08:18.605Z,13.41
2023-05-06T03:08:39.893Z,13.41
2023-05-06T03:09:01.173Z,13.40
2023-05-06T03:09:22.220Z,13.40
2023-05-06T03:09:43.387Z,13.39
2023-05-06T03:10:04.437Z,13.38
2023-05-06T03:10:25.515Z,13.38
2023-05-06T03:10:46.588Z,13.38
2023-05-06T03:11:08.379Z,13.38
2023-05-06T03:11:29.467Z,13.37
2023-05-06T03:11:50.528Z,13.36
2023-05-06T03:12:11.592Z,13.36
2023-05-06T03:12:32.755Z,13.35
2023-05-06T03:12:53.836Z,13.35
2023-05-06T03:13:15.012Z,13.34
2023-05-06T03:13:36.119Z,13.34
2023-05-06T03:13:57.420Z,13.34
2023-05-06T03:14:18.650Z,13.34
2023-05-06T03:14:39.725Z,13.33
2023-05-06T03:15:00.812Z,13.32
2023-05-06T03:15:21.856Z,13.32
2023-05-06T03:15:42.989Z,13.32
2023-05-06T03:16:04.155Z,13.31
2023-05-06T03:16:25.225Z,13.30
2023-05-06T03:16:46.316Z,13.30
2023-05-06T03:17:07.379Z,13.29
2023-05-06T03:17:28.441Z,13.30
2023-05-06T03:17:49.548Z,13.28
2023-05-06T03:18:10.602Z,13.28
2023-05-06T03:18:31.645Z,13.28
2023-05-06T03:18:52.713Z,13.27
2023-05-06T03:19:13.823Z,13.27
2023-05-06T03:19:34.912Z,13.27
2023-05-06T03:19:55.982Z,13.26
2023-05-06T03:20:17.035Z,13.26
2023-05-06T03:20:38.095Z,13.25
2023-05-06T03:20:59.171Z,13.25
2023-05-06T03:21:20.298Z,13.25
2023-05-06T03:21:41.422Z,13.25
2023-05-06T03:22:02.463Z,13.24
2023-05-06T03:22:23.539Z,13.24
2023-05-06T03:22:44.571Z,13.24
2023-05-06T03:23:05.626Z,13.23
2023-05-06T03:23:26.678Z,13.23
2023-05-06T03:23:47.731Z,13.23
2023-05-06T03:24:08.793Z,13.23
2023-05-06T03:24:29.890Z,13.22
2023-05-06T03:24:51.225Z,13.23
2023-05-06T03:25:12.423Z,13.22
2023-05-06T03:25:33.642Z,13.21
2023-05-06T03:25:54.686Z,13.21
2023-05-06T03:26:15.749Z,13.20
2023-05-06T03:26:36.813Z,13.20
2023-05-06T03:26:57.873Z,13.20
2023-05-06T03:27:18.934Z,13.19
2023-05-06T03:27:39.983Z,13.18
2023-05-06T03:28:01.029Z,13.18
2023-05-06T03:28:22.079Z,13.18
2023-05-06T03:28:43.138Z,13.18
2023-05-06T03:29:04.229Z,13.17
2023-05-06T03:29:25.277Z,13.17
2023-05-06T03:29:46.520Z,13.17
2023-05-06T03:30:07.577Z,13.16
2023-05-06T03:30:28.671Z,13.15
2023-05-06T03:30:49.711Z,13.15
2023-05-06T03:31:10.981Z,13.14
2023-05-06T03:31:32.080Z,13.15
2023-05-06T03:31:53.166Z,13.14
2023-05-06T03:32:14.248Z,13.14
2023-05-06T03:32:35.348Z,13.13
2023-05-06T03:32:56.468Z,13.12
2023-05-06T03:33:17.641Z,13.12
2023-05-06T03:33:38.678Z,13.11
2023-05-06T03:33:59.743Z,13.11
2023-05-06T03:34:20.816Z,13.10
2023-05-06T03:34:41.898Z,13.10
2023-05-06T03:35:03.010Z,13.10
2023-05-06T03:35:24.075Z,13.09
2023-05-06T03:35:45.129Z,13.09
2023-05-06T03:36:06.207Z,13.08
2023-05-06T03:36:27.259Z,13.08
2023-05-06T03:36:48.324Z,13.07
2023-05-06T03:37:09.403Z,13.08
2023-05-06T03:37:30.948Z,13.07
2023-05-06T03:37:51.965Z,13.06
2023-05-06T03:38:13.031Z,13.05
2023-05-06T03:38:34.100Z,13.05
2023-05-06T03:38:55.148Z,13.05
2023-05-06T03:39:16.218Z,13.05
2023-05-06T03:39:37.261Z,13.04
2023-05-06T03:39:58.362Z,13.03
2023-05-06T03:40:19.432Z,13.03
2023-05-06T03:40:40.715Z,13.01
2023-05-06T03:41:01.775Z,13.01
2023-05-06T03:41:22.838Z,13.01
2023-05-06T03:41:43.914Z,13.01
2023-05-06T03:42:06.475Z,13.00
2023-05-06T03:42:28.832Z,13.00
2023-05-06T03:42:49.880Z,12.99
2023-05-06T03:43:10.935Z,12.98
2023-05-06T03:43:32.000Z,12.98
2023-05-06T03:43:53.051Z,12.98
2023-05-06T03:44:14.126Z,12.97
2023-05-06T03:44:35.174Z,12.97
2023-05-06T03:44:56.230Z,12.96
2023-05-06T03:45:17.287Z,12.96
2023-05-06T03:45:38.578Z,12.95
2023-05-06T03:45:59.961Z,12.95
2023-05-06T03:46:21.175Z,12.94
2023-05-06T03:46:42.267Z,12.93
2023-05-06T03:47:03.335Z,12.93
2023-05-06T03:47:24.412Z,12.93
2023-05-06T03:47:45.539Z,12.92
2023-05-06T03:48:06.756Z,12.91
2023-05-06T03:48:27.834Z,12.91
2023-05-06T03:48:48.906Z,12.91
2023-05-06T03:49:09.953Z,12.90
2023-05-06T03:49:31.019Z,12.90
2023-05-06T03:49:52.058Z,12.89
2023-05-06T03:50:13.156Z,12.88
2023-05-06T03:50:34.195Z,12.88
2023-05-06T03:50:55.464Z,12.87
2023-05-06T03:51:16.713Z,12.87
2023-05-06T03:51:37.799Z,12.87
2023-05-06T03:51:58.859Z,12.86
2023-05-06T03:52:19.918Z,12.86
2023-05-06T03:52:40.970Z,12.86
2023-05-06T03:53:02.029Z,12.86
2023-05-06T03:53:23.106Z,12.85
2023-05-06T03:53:44.150Z,12.85
2023-05-06T03:54:05.197Z,12.85
2023-05-06T03:54:26.285Z,12.84
2023-05-06T03:54:47.329Z,12.85
2023-05-06T03:55:08.654Z,12.84
2023-05-06T03:55:29.818Z,12.83
2023-05-06T03:55:50.887Z,12.83
2023-05-06T03:56:12.126Z,12.83
2023-05-06T03:56:33.392Z,12.83
2023-05-06T03:56:54.456Z,12.82
2023-05-06T03:57:15.522Z,12.82
2023-05-06T03:57:36.585Z,12.81
2023-05-06T03:57:57.648Z,12.81
2023-05-06T03:58:18.738Z,12.81
2023-05-06T03:58:39.794Z,12.81
2023-05-06T03:59:00.853Z,12.82
2023-05-06T03:59:21.896Z,12.81
2023-05-06T03:59:42.964Z,12.82
2023-05-06T04:00:04.020Z,12.81
2023-05-06T04:00:25.069Z,12.81
2023-05-06T04:00:46.135Z,12.80
2023-05-06T04:01:07.192Z,12.81
2023-05-06T04:01:28.628Z,12.81
2023-05-06T04:01:49.689Z,12.81
2023-05-06T04:02:10.775Z,12.81
2023-05-06T04:02:31.868Z,12.80
2023-05-06T04:02:53.027Z,12.81
2023-05-06T04:03:14.161Z,12.80
2023-05-06T04:03:35.289Z,12.81
2023-05-06T04:03:56.375Z,12.81
2023-05-06T04:04:17.419Z,12.81
2023-05-06T04:04:38.485Z,12.81
2023-05-06T04:04:59.543Z,12.81
2023-05-06T04:05:20.611Z,12.82
2023-05-06T04:05:41.670Z,12.81
2023-05-06T04:06:02.744Z,12.81
2023-05-06T04:06:23.831Z,12.81
2023-05-06T04:06:45.122Z,12.81
2023-05-06T04:07:06.204Z,12.82
2023-05-06T04:07:27.257Z,12.82
2023-05-06T04:07:48.325Z,12.83
2023-05-06T04:08:09.387Z,12.81
2023-05-06T04:08:30.432Z,12.82
2023-05-06T04:08:51.494Z,12.82
2023-05-06T04:09:12.569Z,12.82
2023-05-06T04:09:33.634Z,12.82
2023-05-06T04:09:54.688Z,12.82
2023-05-06T04:10:15.766Z,12.81
2023-05-06T04:10:36.822Z,12.82
2023-05-06T04:10:57.912Z,12.82
2023-05-06T04:11:18.955Z,12.82
2023-05-06T04:11:40.037Z,12.81
2023-05-06T04:12:01.135Z,12.81
2023-05-06T04:12:22.227Z,12.82
2023-05-06T04:12:43.426Z,12.81
2023-05-06T04:13:04.503Z,12.81
2023-05-06T04:13:25.592Z,12.82
2023-05-06T04:13:46.626Z,12.82
2023-05-06T04:14:07.696Z,12.82
2023-05-06T04:14:28.764Z,12.83
2023-05-06T04:14:49.805Z,12.82
2023-05-06T04:15:11.119Z,12.83
2023-05-06T04:15:32.329Z,12.83
2023-05-06T04:15:53.401Z,12.84
2023-05-06T04:16:14.490Z,12.83
2023-05-06T04:16:35.846Z,12.84
2023-05-06T04:16:56.876Z,12.84
2023-05-06T04:17:17.994Z,12.84
2023-05-06T04:17:39.074Z,12.84
2023-05-06T04:18:00.226Z,12.84
2023-05-06T04:18:21.272Z,12.85
2023-05-06T04:18:42.334Z,12.85
2023-05-06T04:19:05.705Z,12.85
2023-05-06T04:19:27.417Z,12.86
2023-05-06T04:19:48.479Z,12.85
2023-05-06T04:20:09.547Z,12.85
2023-05-06T04:20:30.605Z,12.85
2023-05-06T04:20:51.690Z,12.85
2023-05-06T04:21:12.745Z,12.86
2023-05-06T04:21:33.782Z,12.86
2023-05-06T04:21:54.844Z,12.86
2023-05-06T04:22:15.900Z,12.87
2023-05-06T04:22:37.171Z,12.86
2023-05-06T04:22:58.435Z,12.87
2023-05-06T04:23:19.509Z,12.87
2023-05-06T04:23:40.553Z,12.87
2023-05-06T04:24:01.646Z,12.88
2023-05-06T04:24:22.677Z,12.88
2023-05-06T04:24:43.761Z,12.89
2023-05-06T04:25:04.801Z,12.88
2023-05-06T04:25:25.885Z,12.90
2023-05-06T04:25:46.928Z,12.90
2023-05-06T04:26:08.000Z,12.90
2023-05-06T04:26:29.055Z,12.90
2023-05-06T04:26:50.153Z,12.91
2023-05-06T04:27:11.223Z,12.90
2023-05-06T04:27:32.277Z,12.91
2023-05-06T04:27:53.550Z,12.91
2023-05-06T04:28:14.636Z,12.92
2023-05-06T04:28:35.704Z,12.91
2023-05-06T04:28:56.746Z,12.92
2023-05-06T04:29:17.832Z,12.93
2023-05-06T04:29:38.889Z,12.91
2023-05-06T04:29:59.947Z,12.93
2023-05-06T04:30:21.028Z,12.93
2023-05-06T04:30:42.087Z,12.92
2023-05-06T04:31:03.135Z,12.93
2023-05-06T04:31:24.203Z,12.94
2023-05-06T04:31:45.478Z,12.93